Time;durP1;ratioP1;P1;durP2;ratioP2;P2;SDS_P1;SDS_P2;PMS_P1;PMS_P2;Temp;Humidity;BMP_temperature;BMP_pressure;BME280_temperature;BME280_humidity;BME280_pressure;Samples;Min_cycle;Max_cycle;Signal;HPM_P1;HPM_P2
2021/07/16 00:00:33;;;;;;;;;;;;;;;28.82;39.95;97310.53;5002324;28;1134;-89
2021/07/16 00:02:58;;;;;;;;;;;;;;;28.83;39.61;97307.72;5000024;28;1631;-89
2021/07/16 00:05:24;;;;;;;;;;;;;;;28.85;39.87;97310.25;4999214;28;1608;-89
2021/07/16 00:07:49;;;;;;;;;;;;;;;28.89;39.67;97311.63;4999925;28;1479;-89
2021/07/16 00:10:15;;;;;;;;;;;;;;;28.86;39.52;97310.09;4999313;28;1553;-89
2021/07/16 00:12:40;;;;;;;;;;;;;;;28.83;39.74;97309.56;4999537;28;1293;-89
2021/07/16 00:15:06;;;;;;;;;;;;;;;28.87;39.73;97313.59;5008406;28;1525;-89
2021/07/16 00:17:32;;;;;;;;;;;;;;;28.87;39.53;97305.63;5008505;28;1906;-90
2021/07/16 00:19:57;;;;;;;;;;;;;;;28.84;39.98;97309.44;4996378;28;1662;-90
2021/07/16 00:22:22;;;;;;;;;;;;;;;28.92;39.77;97314.88;5005470;28;1575;-89
2021/07/16 00:24:48;;;;;;;;;;;;;;;28.84;40.00;97317.38;5010437;28;1571;-89
2021/07/16 00:27:13;;;;;;;;;;;;;;;28.88;39.66;97318.75;5004074;28;1336;-89
2021/07/16 00:29:38;;;;;;;;;;;;;;;28.83;39.86;97314.84;5015199;28;1178;-89
2021/07/16 00:32:04;;;;;;;;;;;;;;;28.84;39.94;97322.69;5011931;28;1343;-89
2021/07/16 00:34:29;;;;;;;;;;;;;;;28.83;39.82;97317.50;5004738;28;1763;-89
2021/07/16 00:36:55;;;;;;;;;;;;;;;28.91;39.60;97317.63;5004641;28;1910;-90
2021/07/16 00:39:20;;;;;;;;;;;;;;;28.80;39.91;97312.50;5001942;28;1535;-89
2021/07/16 00:41:45;;;;;;;;;;;;;;;28.78;40.07;97319.78;5001944;28;1360;-90
2021/07/16 00:44:10;;;;;;;;;;;;;;;28.83;39.76;97315.69;5004791;28;1055;-90
2021/07/16 00:46:35;;;;;;;;;;;;;;;28.78;40.02;97323.28;4997269;28;1564;-89
2021/07/16 00:49:01;;;;;;;;;;;;;;;28.85;39.58;97313.75;5004896;28;1249;-89
2021/07/16 00:51:26;;;;;;;;;;;;;;;28.80;39.74;97317.81;5002225;28;1732;-89
2021/07/16 00:53:51;;;;;;;;;;;;;;;28.85;39.68;97316.41;5002648;28;1575;-89
2021/07/16 00:56:16;;;;;;;;;;;;;;;28.88;39.87;97309.94;5001579;28;1969;-90
2021/07/16 00:58:41;;;;;;;;;;;;;;;28.91;39.75;97320.28;5003774;28;1635;-89
2021/07/16 01:01:07;;;;;;;;;;;;;;;28.78;39.95;97311.81;4983991;28;1440;-90
2021/07/16 01:03:32;;;;;;;;;;;;;;;28.85;39.69;97320.88;4999571;28;1545;-90
2021/07/16 01:05:58;;;;;;;;;;;;;;;28.81;39.71;97317.66;5012642;28;1454;-89
2021/07/16 01:08:23;;;;;;;;;;;;;;;28.86;39.68;97314.59;5006290;28;1185;-90
2021/07/16 01:10:48;;;;;;;;;;;;;;;28.94;39.44;97314.72;5002253;28;1593;-90
2021/07/16 01:13:13;;;;;;;;;;;;;;;28.81;39.87;97316.84;5014197;28;1238;-90
2021/07/16 01:15:39;;;;;;;;;;;;;;;28.83;39.63;97310.38;5004051;28;1340;-89
2021/07/16 01:18:04;;;;;;;;;;;;;;;28.81;39.75;97307.03;5004859;28;1910;-89
2021/07/16 01:20:30;;;;;;;;;;;;;;;28.79;39.83;97303.72;5003010;28;1604;-89
2021/07/16 01:22:56;;;;;;;;;;;;;;;28.89;39.67;97311.63;5003172;28;1450;-90
2021/07/16 01:25:22;;;;;;;;;;;;;;;28.88;39.65;97307.31;5002549;28;1592;-89
2021/07/16 01:27:48;;;;;;;;;;;;;;;28.80;39.56;97309.84;5004684;28;1285;-90
2021/07/16 01:30:14;;;;;;;;;;;;;;;28.88;39.67;97312.59;5004545;28;1174;-89
2021/07/16 01:32:39;;;;;;;;;;;;;;;28.86;39.75;97311.94;5000764;28;1549;-89
2021/07/16 01:35:05;;;;;;;;;;;;;;;28.83;39.90;97313.03;5010847;28;1293;-90
2021/07/16 01:37:30;;;;;;;;;;;;;;;28.80;39.77;97302.72;5003600;28;1973;-90
2021/07/16 01:39:57;;;;;;;;;;;;;;;28.74;40.19;97307.78;4999617;28;1571;-90
2021/07/16 01:42:22;;;;;;;;;;;;;;;28.80;39.81;97308.03;5003153;28;1282;-89
2021/07/16 01:44:47;;;;;;;;;;;;;;;28.83;39.69;97307.72;4998069;28;1573;-90
2021/07/16 01:47:12;;;;;;;;;;;;;;;28.84;39.54;97303.28;5003568;28;1268;-90
2021/07/16 01:49:37;;;;;;;;;;;;;;;28.80;39.71;97307.19;5002755;28;1503;-90
2021/07/16 01:52:03;;;;;;;;;;;;;;;28.81;39.46;97307.03;5002220;28;1694;-90
2021/07/16 01:54:28;;;;;;;;;;;;;;;28.88;39.78;97309.94;5009750;28;1528;-89
2021/07/16 01:56:53;;;;;;;;;;;;;;;28.78;39.52;97310.00;5000670;28;1977;-89
2021/07/16 01:59:18;;;;;;;;;;;;;;;28.83;39.67;97313.03;5011354;28;1404;-89
2021/07/16 02:01:44;;;;;;;;;;;;;;;28.79;39.83;97311.69;5005254;28;1421;-89
2021/07/16 02:04:10;;;;;;;;;;;;;;;28.80;39.85;97310.69;4999166;28;1624;-89
2021/07/16 02:06:35;;;;;;;;;;;;;;;28.81;39.65;97301.75;4983219;28;1431;-89
2021/07/16 02:09:01;;;;;;;;;;;;;;;28.85;39.62;97303.13;5008933;28;1617;-89
2021/07/16 02:11:26;;;;;;;;;;;;;;;28.82;39.48;97310.53;5010586;28;1361;-89
2021/07/16 02:13:51;;;;;;;;;;;;;;;28.80;39.57;97317.81;5002178;28;1522;-89
2021/07/16 02:16:17;;;;;;;;;;;;;;;28.86;39.41;97309.28;5002824;28;1906;-89
2021/07/16 02:18:51;;;;;;;;;;;;;;;28.80;39.63;97313.34;5000772;28;1573;-89
2021/07/16 02:21:17;;;;;;;;;;;;;;;28.75;39.77;97314.75;4992975;28;1387;-89
2021/07/16 02:23:42;;;;;;;;;;;;;;;28.73;39.88;97314.06;5001444;28;1221;-89
2021/07/16 02:26:07;;;;;;;;;;;;;;;28.82;39.43;97314.03;5010854;28;1507;-89
2021/07/16 02:28:32;;;;;;;;;;;;;;;28.76;39.69;97319.94;5000778;28;1363;-89
2021/07/16 02:30:58;;;;;;;;;;;;;;;28.75;39.99;97315.59;5004017;28;1260;-89
2021/07/16 02:33:24;;;;;;;;;;;;;;;28.78;39.76;97317.97;5010680;28;1356;-90
2021/07/16 02:35:49;;;;;;;;;;;;;;;28.81;39.74;97322.97;5001492;28;1618;-90
2021/07/16 02:38:14;;;;;;;;;;;;;;;28.75;39.72;97317.41;5002950;28;1898;-89
2021/07/16 02:40:40;;;;;;;;;;;;;;;28.80;39.81;97323.97;5001288;28;1654;-89
2021/07/16 02:43:05;;;;;;;;;;;;;;;28.77;39.45;97318.13;5002118;28;1245;-89
2021/07/16 02:45:30;;;;;;;;;;;;;;;28.76;39.67;97327.06;5010192;28;1511;-89
2021/07/16 02:47:55;;;;;;;;;;;;;;;28.78;39.73;97327.75;4992365;28;1212;-91
2021/07/16 02:50:22;;;;;;;;;;;;;;;28.80;39.84;97336.41;5012433;28;1217;-91
2021/07/16 02:52:47;;;;;;;;;;;;;;;28.84;39.46;97335.13;5000538;28;1576;-91
2021/07/16 02:55:12;;;;;;;;;;;;;;;28.80;39.42;97325.78;4984262;28;1547;-90
2021/07/16 02:57:38;;;;;;;;;;;;;;;28.80;39.58;97331.91;5001862;28;1907;-90
2021/07/16 03:00:04;;;;;;;;;;;;;;;28.78;39.64;97338.38;5011138;28;1400;-90
2021/07/16 03:02:29;;;;;;;;;;;;;;;28.74;39.85;97331.66;4987014;28;1351;-90
2021/07/16 03:04:55;;;;;;;;;;;;;;;28.74;39.94;97336.97;5004058;28;2091;-90
2021/07/16 03:07:20;;;;;;;;;;;;;;;28.82;39.41;97339.72;5013066;28;1174;-91
2021/07/16 03:09:45;;;;;;;;;;;;;;;28.74;39.79;97336.97;5010974;28;1616;-90
2021/07/16 03:12:10;;;;;;;;;;;;;;;28.71;39.89;97332.81;4998993;28;1487;-90
2021/07/16 03:14:36;;;;;;;;;;;;;;;28.78;39.73;97333.06;5010359;28;1339;-90
2021/07/16 03:17:02;;;;;;;;;;;;;;;28.74;39.75;97339.63;5011624;28;1967;-90
2021/07/16 03:19:27;;;;;;;;;;;;;;;28.71;39.70;97326.66;5001266;28;1284;-90
2021/07/16 03:21:52;;;;;;;;;;;;;;;28.72;39.88;97337.13;5010814;28;1662;-90
2021/07/16 03:24:18;;;;;;;;;;;;;;;28.71;39.54;97337.28;5010707;28;1703;-90
2021/07/16 03:26:43;;;;;;;;;;;;;;;28.74;39.81;97347.59;4985512;28;1241;-91
2021/07/16 03:29:08;;;;;;;;;;;;;;;28.75;39.59;97344.78;4987524;28;1173;-91
2021/07/16 03:31:33;;;;;;;;;;;;;;;28.75;39.47;97358.06;5002470;28;1499;-91
2021/07/16 03:33:59;;;;;;;;;;;;;;;28.79;39.52;97351.50;5002592;28;1607;-90
2021/07/16 03:36:24;;;;;;;;;;;;;;;28.75;39.49;97347.44;5003148;28;1986;-90
2021/07/16 03:38:51;;;;;;;;;;;;;;;28.77;39.90;97347.31;5008975;28;1599;-89
2021/07/16 03:41:17;;;;;;;;;;;;;;;28.83;39.30;97352.00;4999224;28;1755;-90
2021/07/16 03:43:42;;;;;;;;;;;;;;;28.75;39.70;97359.88;5000402;28;1310;-89
2021/07/16 03:46:07;;;;;;;;;;;;;;;28.74;39.45;97358.19;5007011;28;1639;-90
2021/07/16 03:48:32;;;;;;;;;;;;;;;28.71;39.70;97369.13;4985761;28;1153;-89
2021/07/16 03:50:57;;;;;;;;;;;;;;;28.78;39.71;97362.25;5001227;28;1347;-89
2021/07/16 03:53:23;;;;;;;;;;;;;;;28.70;39.83;97367.47;5000203;28;1566;-89
2021/07/16 03:55:48;;;;;;;;;;;;;;;28.76;39.47;97372.19;5010326;28;1634;-89
2021/07/16 03:58:13;;;;;;;;;;;;;;;28.76;39.52;97369.53;5000934;28;1890;-89
2021/07/16 04:00:38;;;;;;;;;;;;;;;28.75;39.91;97366.00;5035968;28;1322;-89
2021/07/16 04:03:04;;;;;;;;;;;;;;;28.76;39.74;97361.56;5019278;28;1551;-89
2021/07/16 04:05:33;;;;;;;;;;;;;;;28.82;39.39;97360.97;4998769;28;1519;-89
2021/07/16 04:08:05;;;;;;;;;;;;;;;28.70;39.60;97356.84;4996042;28;1471;-90
2021/07/16 04:10:33;;;;;;;;;;;;;;;28.72;39.87;97365.47;5008448;28;1594;-89
2021/07/16 04:13:00;;;;;;;;;;;;;;;28.83;39.64;97365.28;5000124;28;1378;-89
2021/07/16 04:15:26;;;;;;;;;;;;;;;28.79;39.75;97367.41;5000769;28;1155;-89
2021/07/16 04:17:51;;;;;;;;;;;;;;;28.78;39.59;97364.91;4999429;28;1906;-89
2021/07/16 04:20:16;;;;;;;;;;;;;;;28.79;39.58;97361.28;4998145;28;1262;-89
2021/07/16 04:22:41;;;;;;;;;;;;;;;28.82;39.81;97366.28;5000254;28;1327;-89
2021/07/16 04:25:07;;;;;;;;;;;;;;;28.77;39.84;97365.91;4982118;28;1594;-89
2021/07/16 04:27:33;;;;;;;;;;;;;;;28.78;39.60;97371.06;5010710;28;1308;-89
2021/07/16 04:29:58;;;;;;;;;;;;;;;28.80;39.65;97370.91;5000874;28;1205;-89
2021/07/16 04:32:23;;;;;;;;;;;;;;;28.74;39.72;97379.44;5008924;28;1517;-88
2021/07/16 04:34:48;;;;;;;;;;;;;;;28.77;39.80;97379.16;4999863;28;1372;-89
2021/07/16 04:37:16;;;;;;;;;;;;;;;28.77;39.75;97385.31;5010073;28;2032;-88
2021/07/16 04:39:42;;;;;;;;;;;;;;;28.80;39.55;97379.69;5009111;28;1586;-89
2021/07/16 04:42:07;;;;;;;;;;;;;;;28.78;39.73;97384.31;5009798;28;1305;-88
2021/07/16 04:44:32;;;;;;;;;;;;;;;28.86;39.66;97378.28;4997225;28;1576;-89
2021/07/16 04:46:58;;;;;;;;;;;;;;;28.81;39.56;97385.84;5010333;28;1135;-89
2021/07/16 04:49:23;;;;;;;;;;;;;;;28.86;39.47;97383.59;4995579;28;1596;-88
2021/07/16 04:51:48;;;;;;;;;;;;;;;28.76;39.79;97380.97;5009757;28;1466;-88
2021/07/16 04:54:15;;;;;;;;;;;;;;;28.73;39.76;97385.72;5005994;28;1544;-89
2021/07/16 04:56:41;;;;;;;;;;;;;;;28.78;39.72;97388.78;5001681;28;1898;-88
2021/07/16 04:59:06;;;;;;;;;;;;;;;28.80;39.64;97392.13;5000230;28;1228;-88
2021/07/16 05:01:31;;;;;;;;;;;;;;;28.80;39.45;97384.16;5008938;28;1427;-88
2021/07/16 05:03:56;;;;;;;;;;;;;;;28.86;39.65;97391.56;5007328;28;1638;-88
2021/07/16 05:06:22;;;;;;;;;;;;;;;28.78;39.82;97399.41;5006437;28;1408;-88
2021/07/16 05:08:47;;;;;;;;;;;;;;;28.79;39.65;97393.94;4999472;28;1210;-88
2021/07/16 05:11:13;;;;;;;;;;;;;;;28.79;39.81;97401.09;4999279;28;1623;-89
2021/07/16 05:13:38;;;;;;;;;;;;;;;28.89;39.33;97394.75;5004036;28;1169;-89
2021/07/16 05:16:04;;;;;;;;;;;;;;;28.85;39.40;97390.72;5002489;28;1903;-89
2021/07/16 05:18:29;;;;;;;;;;;;;;;28.76;39.71;97393.41;5005554;28;1545;-91
2021/07/16 05:20:55;;;;;;;;;;;;;;;28.81;39.71;97402.59;5010541;28;1279;-90
2021/07/16 05:23:20;;;;;;;;;;;;;;;28.78;39.69;97397.59;5002210;28;1371;-90
2021/07/16 05:25:45;;;;;;;;;;;;;;;28.95;39.43;97403.16;5001809;28;1711;-89
2021/07/16 05:28:10;;;;;;;;;;;;;;;28.87;39.59;97401.19;5012220;28;1217;-89
2021/07/16 05:30:35;;;;;;;;;;;;;;;28.86;39.40;97403.00;5003217;28;1322;-89
2021/07/16 05:33:01;;;;;;;;;;;;;;;28.87;39.70;97406.50;4987274;28;1224;-89
2021/07/16 05:35:26;;;;;;;;;;;;;;;28.83;39.79;97410.41;4998337;28;1589;-90
2021/07/16 05:37:51;;;;;;;;;;;;;;;28.80;39.64;97413.38;4983896;28;1963;-90
2021/07/16 05:40:16;;;;;;;;;;;;;;;28.80;39.56;97416.84;5008967;28;1653;-89
2021/07/16 05:42:42;;;;;;;;;;;;;;;28.69;40.01;97425.00;5013082;28;1448;-91
2021/07/16 05:45:07;;;;;;;;;;;;;;;28.90;39.51;97422.16;4987263;28;1356;-91
2021/07/16 05:47:32;;;;;;;;;;;;;;;28.86;39.49;97418.09;5001795;28;1636;-90
2021/07/16 05:49:58;;;;;;;;;;;;;;;28.84;39.67;97423.56;5012968;28;1213;-90
2021/07/16 05:52:24;;;;;;;;;;;;;;;28.88;39.65;97429.41;5013762;28;1280;-91
2021/07/16 05:54:49;;;;;;;;;;;;;;;28.85;39.71;97435.00;5003073;28;1569;-91
2021/07/16 05:57:14;;;;;;;;;;;;;;;28.81;39.55;97433.63;5003008;28;1907;-90
2021/07/16 05:59:39;;;;;;;;;;;;;;;28.82;39.46;97435.28;5003718;28;1210;-91
2021/07/16 06:02:05;;;;;;;;;;;;;;;28.80;39.49;97438.09;5003012;28;1412;-90
2021/07/16 06:04:30;;;;;;;;;;;;;;;28.88;39.52;97440.84;5011696;28;1523;-89
2021/07/16 06:06:55;;;;;;;;;;;;;;;28.81;39.90;97450.38;5001941;28;1438;-89
2021/07/16 06:09:20;;;;;;;;;;;;;;;28.82;39.87;97456.50;5002219;28;1589;-89
2021/07/16 06:11:46;;;;;;;;;;;;;;;28.84;39.69;97458.06;5009390;28;1430;-90
2021/07/16 06:14:11;;;;;;;;;;;;;;;28.94;39.58;97454.56;5012228;28;1333;-90
2021/07/16 06:16:37;;;;;;;;;;;;;;;28.86;39.47;97448.13;4987032;28;1950;-90
2021/07/16 06:19:02;;;;;;;;;;;;;;;28.88;39.46;97451.47;5002627;28;1573;-90
2021/07/16 06:21:27;;;;;;;;;;;;;;;28.82;39.61;97453.88;5011509;28;1482;-90
2021/07/16 06:23:52;;;;;;;;;;;;;;;28.87;39.64;97451.63;4995907;28;1519;-91
2021/07/16 06:26:36;;;;;;;;;;;;;;;28.85;39.59;97458.91;4997999;28;1721;-90
2021/07/16 06:29:02;;;;;;;;;;;;;;;28.72;39.69;97458.38;5010683;28;1712;-89
2021/07/16 06:31:27;;;;;;;;;;;;;;;28.80;39.71;97458.50;4984563;28;1756;-89
2021/07/16 06:33:52;;;;;;;;;;;;;;;28.95;39.24;97462.38;5012246;28;1119;-89
2021/07/16 06:36:17;;;;;;;;;;;;;;;28.86;39.36;97468.53;5012227;28;1974;-88
2021/07/16 06:38:42;;;;;;;;;;;;;;;28.82;39.38;97465.31;5011575;28;1547;-88
2021/07/16 06:41:08;;;;;;;;;;;;;;;28.78;39.65;97466.59;5009395;28;1579;-88
2021/07/16 06:43:33;;;;;;;;;;;;;;;28.78;39.64;97471.06;5012219;28;1218;-88
2021/07/16 06:45:58;;;;;;;;;;;;;;;28.72;39.97;97472.47;4998766;28;1640;-87
2021/07/16 06:48:24;;;;;;;;;;;;;;;28.82;39.57;97467.13;5011869;28;1170;-87
2021/07/16 06:50:49;;;;;;;;;;;;;;;28.93;39.40;97474.97;5010411;28;1103;-87
2021/07/16 06:53:14;;;;;;;;;;;;;;;28.81;39.87;97476.09;5009247;28;1540;-87
2021/07/16 06:55:39;;;;;;;;;;;;;;;28.95;39.31;97478.31;4997922;28;1617;-87
2021/07/16 06:58:04;;;;;;;;;;;;;;;28.77;39.94;97483.50;5000135;28;1962;-87
2021/07/16 07:00:31;;;;;;;;;;;;;;;28.85;39.36;97478.31;5009756;28;1467;-87
2021/07/16 07:02:56;;;;;;;;;;;;;;;28.84;39.66;97479.31;5008792;28;1363;-87
2021/07/16 07:05:25;;;;;;;;;;;;;;;28.81;39.67;97484.03;5011624;28;1388;-87
2021/07/16 07:07:50;;;;;;;;;;;;;;;28.79;39.65;97488.66;5007918;28;1352;-88
2021/07/16 07:10:15;;;;;;;;;;;;;;;28.74;39.78;97475.81;5008872;28;1579;-88
2021/07/16 07:12:42;;;;;;;;;;;;;;;28.72;39.90;97485.75;5001295;28;1463;-89
2021/07/16 07:15:07;;;;;;;;;;;;;;;28.82;39.61;97489.19;5010775;28;1322;-88
2021/07/16 07:17:32;;;;;;;;;;;;;;;28.75;40.00;97488.09;5007511;28;1899;-88
2021/07/16 07:19:58;;;;;;;;;;;;;;;28.84;39.64;97494.41;5000824;28;1258;-88
2021/07/16 07:22:23;;;;;;;;;;;;;;;28.84;39.67;97489.09;5004825;28;1320;-87
2021/07/16 07:24:48;;;;;;;;;;;;;;;28.77;39.76;97493.28;5002968;28;1618;-89
2021/07/16 07:27:13;;;;;;;;;;;;;;;28.85;39.40;97496.06;4997244;28;1209;-89
2021/07/16 07:29:39;;;;;;;;;;;;;;;28.77;39.84;97496.78;4996560;28;1252;-88
2021/07/16 07:32:04;;;;;;;;;;;;;;;28.86;39.62;97497.72;5010658;28;1606;-88
2021/07/16 07:34:29;;;;;;;;;;;;;;;28.76;39.59;97502.22;5004188;28;1198;-88
2021/07/16 07:36:57;;;;;;;;;;;;;;;28.69;39.95;97496.66;4998425;28;1950;-87
2021/07/16 07:39:23;;;;;;;;;;;;;;;28.80;39.81;97498.31;5005049;28;1618;-87
2021/07/16 07:41:48;;;;;;;;;;;;;;;28.83;39.56;97498.84;5003856;28;1283;-87
2021/07/16 07:44:13;;;;;;;;;;;;;;;28.82;39.48;97501.63;4998854;28;1178;-87
2021/07/16 07:46:39;;;;;;;;;;;;;;;28.75;39.81;97497.88;5005576;28;1355;-87
2021/07/16 07:49:06;;;;;;;;;;;;;;;28.79;39.46;97507.25;5004314;28;1549;-88
2021/07/16 07:51:32;;;;;;;;;;;;;;;28.78;39.64;97498.44;5003909;28;1272;-89
2021/07/16 07:53:57;;;;;;;;;;;;;;;28.86;39.69;97497.72;5001512;28;1103;-88
2021/07/16 07:56:22;;;;;;;;;;;;;;;28.84;39.44;97503.19;4990688;28;1914;-88
2021/07/16 07:58:47;;;;;;;;;;;;;;;28.74;39.85;97510.31;4997005;28;1569;-88
2021/07/16 08:01:13;;;;;;;;;;;;;;;28.76;39.83;97507.53;5008231;28;1375;-88
2021/07/16 08:03:38;;;;;;;;;;;;;;;28.77;39.41;97506.56;5010785;28;1347;-88
2021/07/16 08:06:05;;;;;;;;;;;;;;;28.76;39.93;97504.88;4999059;28;1555;-88
2021/07/16 08:08:31;;;;;;;;;;;;;;;28.77;39.44;97501.25;5009891;28;1272;-88
2021/07/16 08:10:56;;;;;;;;;;;;;;;28.77;39.88;97507.41;4999328;28;1577;-88
2021/07/16 08:13:22;;;;;;;;;;;;;;;28.77;39.45;97504.75;5009252;28;1347;-87
2021/07/16 08:15:47;;;;;;;;;;;;;;;28.80;39.88;97506.25;5001330;28;1210;-88
2021/07/16 08:18:12;;;;;;;;;;;;;;;28.84;39.40;97507.66;4992688;28;1953;-88
2021/07/16 08:20:37;;;;;;;;;;;;;;;28.79;39.64;97507.25;5010476;28;1239;-88
2021/07/16 08:23:02;;;;;;;;;;;;;;;28.77;39.62;97515.34;5009350;28;1391;-88
2021/07/16 08:25:28;;;;;;;;;;;;;;;28.84;39.37;97518.28;5009194;28;1676;-88
2021/07/16 08:27:53;;;;;;;;;;;;;;;28.73;39.74;97519.25;4999961;28;1346;-88
2021/07/16 08:30:18;;;;;;;;;;;;;;;28.74;39.49;97512.97;5009976;28;1494;-88
2021/07/16 08:32:43;;;;;;;;;;;;;;;28.68;39.88;97523.34;4999200;28;1657;-88
2021/07/16 08:35:09;;;;;;;;;;;;;;;28.72;39.75;97527.38;5009131;28;897;-88
2021/07/16 08:37:34;;;;;;;;;;;;;;;28.86;39.24;97519.81;5000939;28;1965;-88
2021/07/16 08:39:59;;;;;;;;;;;;;;;28.72;39.95;97519.41;5009540;28;1603;-88
2021/07/16 08:42:26;;;;;;;;;;;;;;;28.77;39.66;97517.19;4983813;28;1298;-88
2021/07/16 08:44:51;;;;;;;;;;;;;;;28.74;39.89;97523.59;5011990;28;1371;-88
2021/07/16 08:47:17;;;;;;;;;;;;;;;28.71;39.93;97520.38;5013254;28;1272;-88
2021/07/16 08:49:42;;;;;;;;;;;;;;;28.67;40.01;97524.28;5003719;28;1556;-88
2021/07/16 08:52:07;;;;;;;;;;;;;;;28.66;40.07;97523.44;4985676;28;1486;-88
2021/07/16 08:54:34;;;;;;;;;;;;;;;28.84;39.36;97523.59;4978695;28;1535;-88
2021/07/16 08:57:00;;;;;;;;;;;;;;;28.90;39.37;97525.69;4996624;28;1961;-88
2021/07/16 08:59:25;;;;;;;;;;;;;;;28.79;39.30;97525.81;5013164;28;1528;-88
2021/07/16 09:01:51;;;;;;;;;;;;;;;28.82;39.50;97531.66;5003485;28;1392;-88
2021/07/16 09:04:16;;;;;;;;;;;;;;;28.75;39.68;97524.41;5002265;28;1591;-88
2021/07/16 09:06:44;;;;;;;;;;;;;;;28.73;39.58;97532.53;5004583;28;1377;-88
2021/07/16 09:09:10;;;;;;;;;;;;;;;28.73;39.74;97529.03;4999347;28;1529;-88
2021/07/16 09:11:41;;;;;;;;;;;;;;;28.68;39.56;97531.28;5014013;28;1236;-89
2021/07/16 09:14:07;;;;;;;;;;;;;;;28.67;39.80;97529.59;5000993;28;1430;-88
2021/07/16 09:16:32;;;;;;;;;;;;;;;28.79;39.49;97525.81;5012741;28;1898;-87
2021/07/16 09:18:57;;;;;;;;;;;;;;;28.80;39.75;97516.88;5011357;28;1575;-88
2021/07/16 09:21:22;;;;;;;;;;;;;;;28.79;39.43;97509.91;5004020;28;1291;-88
2021/07/16 09:23:48;;;;;;;;;;;;;;;28.77;39.47;97514.53;5001196;28;1453;-88
2021/07/16 09:26:13;;;;;;;;;;;;;;;28.81;39.18;97508.75;5001646;28;1521;-88
2021/07/16 09:28:46;;;;;;;;;;;;;;;28.70;40.02;97503.63;5012405;28;1395;-88
2021/07/16 09:31:12;;;;;;;;;;;;;;;28.83;39.41;97506.78;5011930;28;1277;-88
2021/07/16 09:33:41;;;;;;;;;;;;;;;28.75;39.63;97500.53;5002858;28;1668;-88
2021/07/16 09:36:06;;;;;;;;;;;;;;;28.75;39.49;97495.22;4997098;28;1585;-88
2021/07/16 09:38:32;;;;;;;;;;;;;;;28.78;39.41;97502.91;5001413;28;1962;-88
2021/07/16 09:40:57;;;;;;;;;;;;;;;28.75;39.67;97500.53;4985761;28;1654;-88
2021/07/16 09:43:26;;;;;;;;;;;;;;;28.74;39.83;97499.69;4986979;28;1412;-88
2021/07/16 09:45:51;;;;;;;;;;;;;;;28.71;39.76;97496.50;5012502;28;1344;-88
2021/07/16 09:48:20;;;;;;;;;;;;;;;28.70;39.50;97503.63;5011183;28;1587;-88
2021/07/16 09:50:45;;;;;;;;;;;;;;;28.73;39.56;97492.72;4986167;28;1453;-88
2021/07/16 09:53:22;;;;;;;;;;;;;;;28.69;39.73;97487.84;5002588;28;1287;-88
2021/07/16 09:55:47;;;;;;;;;;;;;;;28.64;39.70;97486.44;5006736;28;1603;-88
2021/07/16 09:58:22;;;;;;;;;;;;;;;28.70;39.63;97486.88;5012988;28;1898;-88
2021/07/16 10:00:47;;;;;;;;;;;;;;;28.70;39.69;97484.22;5004890;28;1186;-88
2021/07/16 10:03:12;;;;;;;;;;;;;;;28.75;39.57;97481.94;4988374;28;1268;-88
2021/07/16 10:05:39;;;;;;;;;;;;;;;28.75;39.53;97479.31;5009593;28;1618;-88
2021/07/16 10:08:04;;;;;;;;;;;;;;;28.70;39.63;97487.72;5001131;28;1031;-88
2021/07/16 10:10:29;;;;;;;;;;;;;;;28.80;39.33;97482.38;4999228;28;1632;-88
2021/07/16 10:12:55;;;;;;;;;;;;;;;28.68;39.86;97476.41;5003190;28;1300;-88
2021/07/16 10:15:23;;;;;;;;;;;;;;;28.80;39.40;97482.38;5011197;28;1434;-88
2021/07/16 10:17:49;;;;;;;;;;;;;;;28.78;39.53;97487.84;5001113;28;1898;-88
2021/07/16 10:20:15;;;;;;;;;;;;;;;28.77;39.70;97483.50;5002602;28;1182;-88
2021/07/16 10:22:40;;;;;;;;;;;;;;;28.83;39.53;97474.13;4998425;28;1517;-88
2021/07/16 10:25:06;;;;;;;;;;;;;;;28.76;39.38;97483.66;5008996;28;1725;-88
2021/07/16 10:27:32;;;;;;;;;;;;;;;28.76;39.42;97487.16;5002283;28;1189;-88
2021/07/16 10:30:12;;;;;;;;;;;;;;;28.81;39.10;97473.44;5000510;28;1523;-88
2021/07/16 10:32:47;;;;;;;;;;;;;;;28.78;39.44;97487.00;5011883;28;1360;-88
2021/07/16 10:35:14;;;;;;;;;;;;;;;28.69;39.43;97482.53;4999018;28;1739;-88
2021/07/16 10:37:39;;;;;;;;;;;;;;;28.75;39.55;97488.09;5011545;28;1973;-88
2021/07/16 10:40:04;;;;;;;;;;;;;;;28.72;39.60;97479.59;5000819;28;1568;-88
2021/07/16 10:42:30;;;;;;;;;;;;;;;28.70;39.54;97481.56;5002452;28;1363;-88
2021/07/16 10:44:59;;;;;;;;;;;;;;;28.77;39.38;97482.66;5010227;28;1394;-87
2021/07/16 10:47:37;;;;;;;;;;;;;;;28.79;39.12;97484.19;5001180;28;1475;-88
2021/07/16 10:50:03;;;;;;;;;;;;;;;28.71;39.46;97476.09;5000137;28;1258;-87
2021/07/16 10:52:45;;;;;;;;;;;;;;;28.69;39.55;97485.19;5011108;28;1286;-88
2021/07/16 10:55:10;;;;;;;;;;;;;;;28.67;39.82;97479.19;5008348;28;1568;-88
2021/07/16 10:57:42;;;;;;;;;;;;;;;28.79;39.26;97481.53;5002494;28;1961;-88
2021/07/16 11:00:13;;;;;;;;;;;;;;;28.75;39.55;97476.66;5009700;28;1149;-88
2021/07/16 11:02:38;;;;;;;;;;;;;;;28.75;39.58;97476.66;5000806;28;1326;-88
2021/07/16 11:05:23;;;;;;;;;;;;;;;28.77;39.54;97485.31;5009828;28;1598;-88
2021/07/16 11:07:48;;;;;;;;;;;;;;;28.81;39.16;97484.88;5000299;28;1459;-88
2021/07/16 11:10:32;;;;;;;;;;;;;;;28.88;39.08;97483.31;5010603;28;1591;-88
2021/07/16 11:13:08;;;;;;;;;;;;;;;28.63;39.64;97490.09;5007858;28;1383;-88
2021/07/16 11:15:33;;;;;;;;;;;;;;;28.72;39.15;97488.41;4999936;28;1403;-88
2021/07/16 11:17:58;;;;;;;;;;;;;;;28.75;39.58;97482.78;5009004;28;1883;-88
2021/07/16 11:20:25;;;;;;;;;;;;;;;28.73;39.39;97486.56;5011023;28;1324;-88
2021/07/16 11:22:53;;;;;;;;;;;;;;;28.67;39.44;97480.00;5000934;28;1571;-88
2021/07/16 11:25:18;;;;;;;;;;;;;;;28.69;39.44;97471.94;5009777;28;1586;-88
2021/07/16 11:27:43;;;;;;;;;;;;;;;28.72;39.24;97474.28;5000588;28;1284;-88
2021/07/16 11:30:08;;;;;;;;;;;;;;;28.69;39.70;97475.41;5008740;28;1350;-88
2021/07/16 11:32:34;;;;;;;;;;;;;;;28.68;39.44;97471.09;5001762;28;1515;-88
2021/07/16 11:35:00;;;;;;;;;;;;;;;28.68;39.55;97471.09;5008022;28;1610;-88
2021/07/16 11:37:25;;;;;;;;;;;;;;;28.70;39.67;97463.81;4998968;28;1906;-88
2021/07/16 11:39:51;;;;;;;;;;;;;;;28.67;39.42;97469.41;5007932;28;1618;-88
2021/07/16 11:42:16;;;;;;;;;;;;;;;28.72;39.34;97461.03;5019156;22;3801;-88
2021/07/16 11:44:42;;;;;;;;;;;;;;;28.74;39.39;97464.34;4977444;28;1402;-88
2021/07/16 11:47:17;;;;;;;;;;;;;;;28.70;39.22;97461.16;4988923;28;1427;-88
2021/07/16 11:49:43;;;;;;;;;;;;;;;28.65;39.53;97461.59;4997725;28;1145;-88
2021/07/16 11:52:09;;;;;;;;;;;;;;;28.67;39.39;97455.28;4981328;28;1341;-88
2021/07/16 11:54:34;;;;;;;;;;;;;;;28.65;39.52;97456.28;4998942;28;1256;-88
2021/07/16 11:56:59;;;;;;;;;;;;;;;28.67;39.32;97460.59;4981465;28;1914;-88
2021/07/16 11:59:25;;;;;;;;;;;;;;;28.73;39.16;97465.34;4999642;28;1154;-88
2021/07/16 12:02:06;;;;;;;;;;;;;;;28.69;39.43;97461.31;4983782;28;1376;-88
2021/07/16 12:04:31;;;;;;;;;;;;;;;28.63;39.73;97460.91;4979813;28;1621;-88
2021/07/16 12:06:56;;;;;;;;;;;;;;;28.67;39.39;97452.63;4995768;28;1189;-88
2021/07/16 12:09:48;;;;;;;;;;;;;;;28.67;39.71;97452.63;4998792;28;1760;-89
2021/07/16 12:12:16;;;;;;;;;;;;;;;28.65;39.26;97461.59;5009933;28;1273;-88
2021/07/16 12:14:48;;;;;;;;;;;;;;;28.64;39.72;97462.56;4979415;28;1495;-89
2021/07/16 12:17:13;;;;;;;;;;;;;;;28.68;39.33;97457.00;4998980;28;1977;-88
2021/07/16 12:19:38;;;;;;;;;;;;;;;28.66;39.47;97467.72;4984589;28;1198;-88
2021/07/16 12:22:05;;;;;;;;;;;;;;;28.69;39.37;97470.13;5000063;28;1213;-88
2021/07/16 12:24:30;;;;;;;;;;;;;;;28.69;39.38;97463.97;5000548;28;1650;-88
2021/07/16 12:27:08;;;;;;;;;;;;;;;28.72;39.36;97466.31;4982994;28;1592;-87
2021/07/16 12:29:33;;;;;;;;;;;;;;;28.66;39.68;97454.47;5015644;28;1337;-88
2021/07/16 12:31:58;;;;;;;;;;;;;;;28.71;39.15;97459.34;5000344;28;1300;-88
2021/07/16 12:34:24;;;;;;;;;;;;;;;28.64;39.66;97464.38;5000840;28;1190;-88
2021/07/16 12:36:50;;;;;;;;;;;;;;;28.66;39.43;97449.16;4985114;28;1906;-88
2021/07/16 12:39:21;;;;;;;;;;;;;;;28.65;39.49;97458.94;4981434;28;1585;-88
2021/07/16 12:41:47;;;;;;;;;;;;;;;28.64;39.47;97457.25;4998668;28;1367;-88
2021/07/16 12:44:13;;;;;;;;;;;;;;;28.57;39.59;97460.63;5001784;28;1174;-88
2021/07/16 12:46:38;;;;;;;;;;;;;;;28.65;39.72;97453.63;5019613;28;1225;-88
2021/07/16 12:49:06;;;;;;;;;;;;;;;28.72;39.30;97453.06;5006687;28;1641;-88
2021/07/16 12:51:38;;;;;;;;;;;;;;;28.73;39.24;97454.72;5001802;28;1032;-88